Accueil
METAR-TAF:

METAR-TAF

Aéroports :

Nakashibetsu, Japon

latitude: 43-34N, longitude: 144-58E, altitude: 66 m

Observation

Le bulletin a été fait il y a 10 heures et 42 minutes, à 09:00 UTC
Vent 12 kt de ouest/sud-ouest
Température 20°C
Humidité 73%
Pression 1006 hPa
Visibilité 10 km ou plus
Quelques nuages à une hauteur de 2000 ft
Nuages épars à une hauteur de 14000 ft
Nuages fragmentés

METAR: RJCN 050900Z 24012KT 9999 FEW020 SCT140 BKN/// 20/15 Q1006

Heure: 04:42 (19:42 UTC)


TAF: absent

Observations et prévisions météorologiques de plus de 4000 aéroports (messages METAR et TAF).

Les stations disponibles sont représentées par des disques jaunes et rouges sur la carte.

Passer la souris dessus pour voir le nom de la station.

Cliquer dessus pour voir les observations et prévisions météorologiques.

Pour changer de carte: cliquez sur les boutons verts avec une croix noire pour zoomer, sur le bouton vert avec un tiret pour effectuer un zoom arrière, ou sur les flèches vertes pour les cartes adjacentes.


METAR-TAF: